Ana Sayfa
METAR-TAF:

METAR-TAF

Havaalanları :

Rock Hill/York County Airport (Bryant Field)

Rock Hill, Güney Carolina, Amerika Birleşik Devletleri

Enlem: 34-59-02N, Boylam: 081-03-21W, yükseklik: 204 m

Güncel hava durumu gözlemi

Rapor saat 11:54 UTC de 47 dakika önce yapıldı.
Sakin rüzgar
Sıcaklık 14°C
Nem 82%
Basınç 1025 hPa
Görüş mesafesi: 16.1 km
11000 ft yükseklikte çok bulutlu

METAR: KUZA 161154Z AUTO 00000KT 10SM OVC110 14/11 A3028 RMK AO2 SLP246 T01440111 10144 20100 53019

Saat: 08:41 (12:41 UTC)


TAF: eksik

4.000'den fazla havaalanı için hava durumu gözlemleri ve tahminleri (METAR ve TAF raporları).

Kullanılabilir istasyonlar harita üzerinde sarı ve kırmızı noktalarla gösterilir.

İstasyonun adını görmek için fareyi noktanın üzerinde gezdirin.

Sonrasında hava gözlem ve tahminlerini görmek için tıklayın.

Haritayı değiştirmek için: yaklaştırmak için siyah artı işaretli yeşil düğmeye ve uzaklaştırmak için de eksi işaretli düğmeye hızla tıklayın; bitişik haritalar için yeşil okları kullanın.


METAR-TAF: